Portada
METAR-TAF:

METAR-TAF

Aeroports :

Ramsar, Iran

latitud: 36-54N, longitud: 050-40E, altitud: -23 m

Observació

L'informe es va fer fa 57 minuts, a les 17:00 UTC
Vent 2 kt del Nord/Nord-Est
Temperatura 27°C
Humitat 79%
Pressió 1006 hPa
Visibilitat 10 km o més
Núvols disperses a una alçada de 2700 ft

METAR: OINR 181700Z 03002KT 9999 SCT027 27/23 Q1006

Hora: 22:27 (17:57 UTC)


TAF: manca

Observacions i pronòstics meteorològics de més de 4000 aeroports (METAR i TAF).

Les estacions disponibles són els punts grocs i vermells al mapa.

Posi el ratolí al punt desitjat per veure el nom de l'estació.

Feu clic per veure les observacions i els pronòstics meteorològics.

Per canviar el mapa: feu clic els botons verds amb una creu de color negre per apropar; al botó verd amb un guió per allunyar la imatge; o en les fletxes verdes per a mapes adjacents.


METAR-TAF: